sensor_id;sensor_type;location;lat;lon;timestamp;temperature;humidity
13659;DHT22;6902;52.158;11.574;2022-11-09T00:01:23;13.10;99.90
13659;DHT22;6902;52.158;11.574;2022-11-09T00:03:54;13.10;99.90
13659;DHT22;6902;52.158;11.574;2022-11-09T00:06:23;13.10;99.90
13659;DHT22;6902;52.158;11.574;2022-11-09T00:08:51;13.10;99.90
13659;DHT22;6902;52.158;11.574;2022-11-09T00:11:18;13.20;99.90
13659;DHT22;6902;52.158;11.574;2022-11-09T00:13:46;13.10;99.90
13659;DHT22;6902;52.158;11.574;2022-11-09T00:16:16;13.10;99.90
13659;DHT22;6902;52.158;11.574;2022-11-09T00:18:44;13.10;99.90
13659;DHT22;6902;52.158;11.574;2022-11-09T00:21:16;13.10;99.90
13659;DHT22;6902;52.158;11.574;2022-11-09T00:23:45;13.10;99.90
13659;DHT22;6902;52.158;11.574;2022-11-09T00:26:14;13.10;99.90
13659;DHT22;6902;52.158;11.574;2022-11-09T00:28:41;13.00;99.90
13659;DHT22;6902;52.158;11.574;2022-11-09T00:31:11;13.10;99.90
13659;DHT22;6902;52.158;11.574;2022-11-09T00:33:38;13.00;99.90
13659;DHT22;6902;52.158;11.574;2022-11-09T00:36:09;12.90;99.90
13659;DHT22;6902;52.158;11.574;2022-11-09T00:38:38;12.90;99.90
13659;DHT22;6902;52.158;11.574;2022-11-09T00:41:08;12.90;99.90
13659;DHT22;6902;52.158;11.574;2022-11-09T00:43:36;12.80;99.90
13659;DHT22;6902;52.158;11.574;2022-11-09T00:46:04;12.80;99.90
13659;DHT22;6902;52.158;11.574;2022-11-09T00:48:32;12.80;99.90
13659;DHT22;6902;52.158;11.574;2022-11-09T00:51:01;12.90;99.90
13659;DHT22;6902;52.158;11.574;2022-11-09T00:53:29;12.80;99.90
13659;DHT22;6902;52.158;11.574;2022-11-09T00:55:58;12.90;99.90
13659;DHT22;6902;52.158;11.574;2022-11-09T00:58:29;12.70;99.90
13659;DHT22;6902;52.158;11.574;2022-11-09T01:00:58;12.80;99.90
13659;DHT22;6902;52.158;11.574;2022-11-09T01:03:26;12.70;99.90
13659;DHT22;6902;52.158;11.574;2022-11-09T01:05:53;12.90;99.90
13659;DHT22;6902;52.158;11.574;2022-11-09T01:08:20;12.70;99.90
13659;DHT22;6902;52.158;11.574;2022-11-09T01:10:47;12.70;99.90
13659;DHT22;6902;52.158;11.574;2022-11-09T01:13:16;12.70;99.90
13659;DHT22;6902;52.158;11.574;2022-11-09T01:15:47;12.70;99.90
13659;DHT22;6902;52.158;11.574;2022-11-09T01:18:15;12.80;99.90
13659;DHT22;6902;52.158;11.574;2022-11-09T01:20:44;12.70;99.90
13659;DHT22;6902;52.158;11.574;2022-11-09T01:23:13;12.60;99.90
13659;DHT22;6902;52.158;11.574;2022-11-09T01:25:40;12.60;99.90
13659;DHT22;6902;52.158;11.574;2022-11-09T01:28:09;12.70;99.90
13659;DHT22;6902;52.158;11.574;2022-11-09T01:30:38;12.60;99.90
13659;DHT22;6902;52.158;11.574;2022-11-09T01:33:09;12.50;99.90
13659;DHT22;6902;52.158;11.574;2022-11-09T01:35:38;12.50;99.90
13659;DHT22;6902;52.158;11.574;2022-11-09T01:38:06;12.60;99.90
13659;DHT22;6902;52.158;11.574;2022-11-09T01:40:35;12.50;99.90
13659;DHT22;6902;52.158;11.574;2022-11-09T01:43:06;12.40;99.90
13659;DHT22;6902;52.158;11.574;2022-11-09T01:45:40;12.50;99.90
13659;DHT22;6902;52.158;11.574;2022-11-09T01:48:13;12.50;99.90
13659;DHT22;6902;52.158;11.574;2022-11-09T01:50:46;12.50;99.90
13659;DHT22;6902;52.158;11.574;2022-11-09T01:53:17;12.60;99.90
13659;DHT22;6902;52.158;11.574;2022-11-09T01:55:49;12.50;99.90
13659;DHT22;6902;52.158;11.574;2022-11-09T01:58:20;12.70;99.90
13659;DHT22;6902;52.158;11.574;2022-11-09T02:00:49;12.80;99.90
13659;DHT22;6902;52.158;11.574;2022-11-09T02:03:23;12.60;99.90
13659;DHT22;6902;52.158;11.574;2022-11-09T02:05:51;12.60;99.90
13659;DHT22;6902;52.158;11.574;2022-11-09T02:08:21;12.60;99.90
13659;DHT22;6902;52.158;11.574;2022-11-09T02:10:54;12.70;99.90
13659;DHT22;6902;52.158;11.574;2022-11-09T02:13:24;12.70;99.90
13659;DHT22;6902;52.158;11.574;2022-11-09T02:15:53;12.80;99.90
13659;DHT22;6902;52.158;11.574;2022-11-09T02:18:21;12.80;99.90
13659;DHT22;6902;52.158;11.574;2022-11-09T02:20:52;12.90;99.90
13659;DHT22;6902;52.158;11.574;2022-11-09T02:23:22;12.80;99.90
13659;DHT22;6902;52.158;11.574;2022-11-09T02:25:52;12.90;99.90
13659;DHT22;6902;52.158;11.574;2022-11-09T02:28:21;12.90;99.90
13659;DHT22;6902;52.158;11.574;2022-11-09T02:30:50;12.80;99.90
13659;DHT22;6902;52.158;11.574;2022-11-09T02:33:18;13.00;99.90
13659;DHT22;6902;52.158;11.574;2022-11-09T02:35:46;12.80;99.90
13659;DHT22;6902;52.158;11.574;2022-11-09T02:38:14;12.90;99.90
13659;DHT22;6902;52.158;11.574;2022-11-09T02:40:44;12.90;99.90
13659;DHT22;6902;52.158;11.574;2022-11-09T02:43:14;13.00;99.90
13659;DHT22;6902;52.158;11.574;2022-11-09T02:45:43;12.90;99.90
13659;DHT22;6902;52.158;11.574;2022-11-09T02:48:10;12.90;99.90
13659;DHT22;6902;52.158;11.574;2022-11-09T02:50:37;12.90;99.90
13659;DHT22;6902;52.158;11.574;2022-11-09T02:53:05;12.90;99.90
13659;DHT22;6902;52.158;11.574;2022-11-09T02:55:37;13.10;99.90
13659;DHT22;6902;52.158;11.574;2022-11-09T02:58:06;13.00;99.90
13659;DHT22;6902;52.158;11.574;2022-11-09T03:00:34;13.10;99.90
13659;DHT22;6902;52.158;11.574;2022-11-09T03:03:02;13.10;99.90
13659;DHT22;6902;52.158;11.574;2022-11-09T03:05:30;13.20;99.90
13659;DHT22;6902;52.158;11.574;2022-11-09T03:08:00;13.20;99.90
13659;DHT22;6902;52.158;11.574;2022-11-09T03:10:30;13.30;99.90
13659;DHT22;6902;52.158;11.574;2022-11-09T03:12:59;13.40;99.90
13659;DHT22;6902;52.158;11.574;2022-11-09T03:15:26;13.20;99.90
13659;DHT22;6902;52.158;11.574;2022-11-09T03:17:53;13.30;99.90
13659;DHT22;6902;52.158;11.574;2022-11-09T03:20:21;13.40;99.90
13659;DHT22;6902;52.158;11.574;2022-11-09T03:22:48;13.40;99.90
13659;DHT22;6902;52.158;11.574;2022-11-09T03:25:15;13.40;99.90
13659;DHT22;6902;52.158;11.574;2022-11-09T03:27:43;13.40;99.90
13659;DHT22;6902;52.158;11.574;2022-11-09T03:30:13;13.40;99.90
13659;DHT22;6902;52.158;11.574;2022-11-09T03:32:41;13.30;99.90
13659;DHT22;6902;52.158;11.574;2022-11-09T03:35:08;13.60;99.90
13659;DHT22;6902;52.158;11.574;2022-11-09T03:37:35;13.40;99.90
13659;DHT22;6902;52.158;11.574;2022-11-09T03:40:04;13.40;99.90
13659;DHT22;6902;52.158;11.574;2022-11-09T03:42:31;13.50;99.90
13659;DHT22;6902;52.158;11.574;2022-11-09T03:44:58;13.60;99.90
13659;DHT22;6902;52.158;11.574;2022-11-09T03:47:27;13.50;99.90
13659;DHT22;6902;52.158;11.574;2022-11-09T03:49:54;13.50;99.90
13659;DHT22;6902;52.158;11.574;2022-11-09T03:52:21;13.50;99.90
13659;DHT22;6902;52.158;11.574;2022-11-09T03:54:48;13.50;99.90
13659;DHT22;6902;52.158;11.574;2022-11-09T03:57:15;13.50;99.90
13659;DHT22;6902;52.158;11.574;2022-11-09T03:59:42;13.50;99.90
13659;DHT22;6902;52.158;11.574;2022-11-09T04:02:09;13.50;99.90
13659;DHT22;6902;52.158;11.574;2022-11-09T04:04:38;13.60;99.90
13659;DHT22;6902;52.158;11.574;2022-11-09T04:07:05;13.60;99.90
13659;DHT22;6902;52.158;11.574;2022-11-09T04:09:33;13.60;99.90
13659;DHT22;6902;52.158;11.574;2022-11-09T04:11:59;13.60;99.90
13659;DHT22;6902;52.158;11.574;2022-11-09T04:14:27;13.60;99.90
13659;DHT22;6902;52.158;11.574;2022-11-09T04:16:54;13.50;99.90
13659;DHT22;6902;52.158;11.574;2022-11-09T04:19:21;13.50;99.90
13659;DHT22;6902;52.158;11.574;2022-11-09T04:21:50;13.50;99.90
13659;DHT22;6902;52.158;11.574;2022-11-09T04:24:17;13.60;99.90
13659;DHT22;6902;52.158;11.574;2022-11-09T04:26:46;13.60;99.90
13659;DHT22;6902;52.158;11.574;2022-11-09T04:29:13;13.50;99.90
13659;DHT22;6902;52.158;11.574;2022-11-09T04:31:40;13.70;99.90
13659;DHT22;6902;52.158;11.574;2022-11-09T04:34:08;13.60;99.90
13659;DHT22;6902;52.158;11.574;2022-11-09T04:36:35;13.60;99.90
13659;DHT22;6902;52.158;11.574;2022-11-09T04:39:04;13.50;99.90
13659;DHT22;6902;52.158;11.574;2022-11-09T04:41:31;13.60;99.90
13659;DHT22;6902;52.158;11.574;2022-11-09T04:43:58;13.60;99.90
13659;DHT22;6902;52.158;11.574;2022-11-09T04:46:25;13.50;99.90
13659;DHT22;6902;52.158;11.574;2022-11-09T04:48:53;13.50;99.90
13659;DHT22;6902;52.158;11.574;2022-11-09T04:51:20;13.40;99.90
13659;DHT22;6902;52.158;11.574;2022-11-09T04:53:50;13.40;99.90
13659;DHT22;6902;52.158;11.574;2022-11-09T04:56:18;13.30;99.90
13659;DHT22;6902;52.158;11.574;2022-11-09T04:58:47;13.20;99.90
13659;DHT22;6902;52.158;11.574;2022-11-09T05:01:14;13.30;99.90
13659;DHT22;6902;52.158;11.574;2022-11-09T05:03:41;13.20;99.90
13659;DHT22;6902;52.158;11.574;2022-11-09T05:06:09;13.20;99.90
13659;DHT22;6902;52.158;11.574;2022-11-09T05:08:50;13.20;99.90
13659;DHT22;6902;52.158;11.574;2022-11-09T05:11:18;13.10;99.90
13659;DHT22;6902;52.158;11.574;2022-11-09T05:13:46;13.10;99.90
13659;DHT22;6902;52.158;11.574;2022-11-09T05:16:14;13.10;99.90
13659;DHT22;6902;52.158;11.574;2022-11-09T05:18:42;13.00;99.90
13659;DHT22;6902;52.158;11.574;2022-11-09T05:21:09;13.00;99.90
13659;DHT22;6902;52.158;11.574;2022-11-09T05:23:36;13.10;99.90
13659;DHT22;6902;52.158;11.574;2022-11-09T05:26:23;13.00;99.90
13659;DHT22;6902;52.158;11.574;2022-11-09T05:28:50;13.10;99.90
13659;DHT22;6902;52.158;11.574;2022-11-09T05:31:17;13.10;99.90
13659;DHT22;6902;52.158;11.574;2022-11-09T05:33:47;13.10;99.90
13659;DHT22;6902;52.158;11.574;2022-11-09T05:36:15;13.00;99.90
13659;DHT22;6902;52.158;11.574;2022-11-09T05:38:42;13.00;99.90
13659;DHT22;6902;52.158;11.574;2022-11-09T05:41:09;13.00;99.90
13659;DHT22;6902;52.158;11.574;2022-11-09T05:43:37;13.00;99.90
13659;DHT22;6902;52.158;11.574;2022-11-09T05:46:04;13.00;99.90
13659;DHT22;6902;52.158;11.574;2022-11-09T05:48:32;13.00;99.90
13659;DHT22;6902;52.158;11.574;2022-11-09T05:51:00;12.90;99.90
13659;DHT22;6902;52.158;11.574;2022-11-09T05:53:28;12.90;99.90
13659;DHT22;6902;52.158;11.574;2022-11-09T05:55:55;12.90;99.90
13659;DHT22;6902;52.158;11.574;2022-11-09T05:58:22;12.90;99.90
13659;DHT22;6902;52.158;11.574;2022-11-09T06:00:51;12.80;99.90
13659;DHT22;6902;52.158;11.574;2022-11-09T06:03:18;12.70;99.90
13659;DHT22;6902;52.158;11.574;2022-11-09T06:05:45;12.80;99.90
13659;DHT22;6902;52.158;11.574;2022-11-09T06:08:14;12.70;99.90
13659;DHT22;6902;52.158;11.574;2022-11-09T06:10:41;12.70;99.90
13659;DHT22;6902;52.158;11.574;2022-11-09T06:13:09;12.80;99.90
13659;DHT22;6902;52.158;11.574;2022-11-09T06:15:37;12.70;99.90
13659;DHT22;6902;52.158;11.574;2022-11-09T06:18:05;12.70;99.90
13659;DHT22;6902;52.158;11.574;2022-11-09T06:20:32;12.80;99.90
13659;DHT22;6902;52.158;11.574;2022-11-09T06:23:01;12.70;99.90
13659;DHT22;6902;52.158;11.574;2022-11-09T06:25:29;12.70;99.90
13659;DHT22;6902;52.158;11.574;2022-11-09T06:27:57;12.70;99.90
13659;DHT22;6902;52.158;11.574;2022-11-09T06:30:25;12.60;99.90
13659;DHT22;6902;52.158;11.574;2022-11-09T06:32:57;12.70;99.90
13659;DHT22;6902;52.158;11.574;2022-11-09T06:35:26;12.80;99.90
13659;DHT22;6902;52.158;11.574;2022-11-09T06:37:55;12.70;99.90
13659;DHT22;6902;52.158;11.574;2022-11-09T06:40:24;12.70;99.90
13659;DHT22;6902;52.158;11.574;2022-11-09T06:42:54;12.80;99.90
13659;DHT22;6902;52.158;11.574;2022-11-09T06:45:22;12.70;99.90
13659;DHT22;6902;52.158;11.574;2022-11-09T06:47:49;12.80;99.90
13659;DHT22;6902;52.158;11.574;2022-11-09T06:50:16;12.70;99.90
13659;DHT22;6902;52.158;11.574;2022-11-09T06:52:45;12.80;99.90
13659;DHT22;6902;52.158;11.574;2022-11-09T06:55:13;12.80;99.90
13659;DHT22;6902;52.158;11.574;2022-11-09T06:57:40;12.70;99.90
13659;DHT22;6902;52.158;11.574;2022-11-09T07:00:08;12.90;99.90
13659;DHT22;6902;52.158;11.574;2022-11-09T07:02:36;12.70;99.90
13659;DHT22;6902;52.158;11.574;2022-11-09T07:05:04;12.70;99.90
13659;DHT22;6902;52.158;11.574;2022-11-09T07:07:31;12.80;99.90
13659;DHT22;6902;52.158;11.574;2022-11-09T07:10:00;12.80;99.90
13659;DHT22;6902;52.158;11.574;2022-11-09T07:12:27;12.70;99.90
13659;DHT22;6902;52.158;11.574;2022-11-09T07:14:54;12.70;99.90
13659;DHT22;6902;52.158;11.574;2022-11-09T07:17:22;12.80;99.90
13659;DHT22;6902;52.158;11.574;2022-11-09T07:19:49;12.70;99.90
13659;DHT22;6902;52.158;11.574;2022-11-09T07:22:16;12.70;99.90
13659;DHT22;6902;52.158;11.574;2022-11-09T07:24:44;12.70;99.90
13659;DHT22;6902;52.158;11.574;2022-11-09T07:27:13;12.70;99.90
13659;DHT22;6902;52.158;11.574;2022-11-09T07:29:41;12.70;99.90
13659;DHT22;6902;52.158;11.574;2022-11-09T07:32:08;12.70;99.90
13659;DHT22;6902;52.158;11.574;2022-11-09T07:34:35;12.80;99.90
13659;DHT22;6902;52.158;11.574;2022-11-09T07:37:03;12.80;99.90
13659;DHT22;6902;52.158;11.574;2022-11-09T07:39:30;12.60;99.90
13659;DHT22;6902;52.158;11.574;2022-11-09T07:41:57;12.80;99.90
13659;DHT22;6902;52.158;11.574;2022-11-09T07:44:27;12.60;99.90
13659;DHT22;6902;52.158;11.574;2022-11-09T07:46:54;12.80;99.90
13659;DHT22;6902;52.158;11.574;2022-11-09T07:49:21;12.60;99.90
13659;DHT22;6902;52.158;11.574;2022-11-09T07:51:48;12.70;99.90
13659;DHT22;6902;52.158;11.574;2022-11-09T07:54:16;12.80;99.90
13659;DHT22;6902;52.158;11.574;2022-11-09T07:56:43;12.60;99.90
13659;DHT22;6902;52.158;11.574;2022-11-09T07:59:10;12.70;99.90
13659;DHT22;6902;52.158;11.574;2022-11-09T08:01:38;12.80;99.90
13659;DHT22;6902;52.158;11.574;2022-11-09T08:04:06;12.90;99.90
13659;DHT22;6902;52.158;11.574;2022-11-09T08:06:33;12.90;99.90
13659;DHT22;6902;52.158;11.574;2022-11-09T08:09:00;12.70;99.90
13659;DHT22;6902;52.158;11.574;2022-11-09T08:11:27;12.80;99.90
13659;DHT22;6902;52.158;11.574;2022-11-09T08:13:54;12.80;99.90
13659;DHT22;6902;52.158;11.574;2022-11-09T08:16:22;12.90;99.90
13659;DHT22;6902;52.158;11.574;2022-11-09T08:18:50;12.90;99.90
13659;DHT22;6902;52.158;11.574;2022-11-09T08:21:18;13.00;99.90
13659;DHT22;6902;52.158;11.574;2022-11-09T08:23:45;13.00;99.90
13659;DHT22;6902;52.158;11.574;2022-11-09T08:26:12;13.10;99.90
13659;DHT22;6902;52.158;11.574;2022-11-09T08:28:39;13.20;99.90
13659;DHT22;6902;52.158;11.574;2022-11-09T08:31:07;13.30;99.90
13659;DHT22;6902;52.158;11.574;2022-11-09T08:33:36;13.30;99.90
13659;DHT22;6902;52.158;11.574;2022-11-09T08:36:10;13.30;99.90
13659;DHT22;6902;52.158;11.574;2022-11-09T08:38:38;13.50;99.90
13659;DHT22;6902;52.158;11.574;2022-11-09T08:41:05;13.70;99.90
13659;DHT22;6902;52.158;11.574;2022-11-09T08:43:32;13.80;99.90
13659;DHT22;6902;52.158;11.574;2022-11-09T08:46:00;14.10;99.90
13659;DHT22;6902;52.158;11.574;2022-11-09T08:48:27;14.30;99.90
13659;DHT22;6902;52.158;11.574;2022-11-09T08:50:57;14.20;99.90
13659;DHT22;6902;52.158;11.574;2022-11-09T08:53:27;14.40;99.90
13659;DHT22;6902;52.158;11.574;2022-11-09T08:55:55;14.30;99.90
13659;DHT22;6902;52.158;11.574;2022-11-09T08:58:22;14.40;99.90
13659;DHT22;6902;52.158;11.574;2022-11-09T09:00:50;14.30;99.90
13659;DHT22;6902;52.158;11.574;2022-11-09T09:03:17;14.40;99.90
13659;DHT22;6902;52.158;11.574;2022-11-09T09:05:44;14.20;99.90
13659;DHT22;6902;52.158;11.574;2022-11-09T09:08:11;14.40;99.90
13659;DHT22;6902;52.158;11.574;2022-11-09T09:10:42;14.30;99.90
13659;DHT22;6902;52.158;11.574;2022-11-09T09:13:09;14.30;99.90
13659;DHT22;6902;52.158;11.574;2022-11-09T09:15:36;14.40;99.90
13659;DHT22;6902;52.158;11.574;2022-11-09T09:18:04;14.30;99.90
13659;DHT22;6902;52.158;11.574;2022-11-09T09:20:32;14.20;99.90
13659;DHT22;6902;52.158;11.574;2022-11-09T09:22:59;14.40;99.90
13659;DHT22;6902;52.158;11.574;2022-11-09T09:25:27;14.40;99.90
13659;DHT22;6902;52.158;11.574;2022-11-09T09:27:56;14.40;99.90
13659;DHT22;6902;52.158;11.574;2022-11-09T09:30:23;14.30;99.90
13659;DHT22;6902;52.158;11.574;2022-11-09T09:32:51;14.20;99.90
13659;DHT22;6902;52.158;11.574;2022-11-09T09:35:18;14.20;99.90
13659;DHT22;6902;52.158;11.574;2022-11-09T09:37:45;14.20;99.90
13659;DHT22;6902;52.158;11.574;2022-11-09T09:40:22;14.20;99.90
13659;DHT22;6902;52.158;11.574;2022-11-09T09:42:52;14.20;99.90
13659;DHT22;6902;52.158;11.574;2022-11-09T09:45:25;14.30;99.90
13659;DHT22;6902;52.158;11.574;2022-11-09T09:47:59;14.20;99.90
13659;DHT22;6902;52.158;11.574;2022-11-09T09:50:31;14.20;99.90
13659;DHT22;6902;52.158;11.574;2022-11-09T09:53:06;14.30;99.90
13659;DHT22;6902;52.158;11.574;2022-11-09T09:55:40;14.00;99.90
13659;DHT22;6902;52.158;11.574;2022-11-09T09:58:11;14.20;99.90
13659;DHT22;6902;52.158;11.574;2022-11-09T10:00:41;14.30;99.90
13659;DHT22;6902;52.158;11.574;2022-11-09T10:03:14;14.20;99.90
13659;DHT22;6902;52.158;11.574;2022-11-09T10:05:51;14.40;99.90
13659;DHT22;6902;52.158;11.574;2022-11-09T10:08:26;14.30;99.90
13659;DHT22;6902;52.158;11.574;2022-11-09T10:11:06;14.50;99.90
13659;DHT22;6902;52.158;11.574;2022-11-09T10:13:51;14.60;99.90
13659;DHT22;6902;52.158;11.574;2022-11-09T10:16:26;14.60;99.90
13659;DHT22;6902;52.158;11.574;2022-11-09T10:22:09;14.80;99.90
13659;DHT22;6902;52.158;11.574;2022-11-09T10:24:49;14.80;99.90
13659;DHT22;6902;52.158;11.574;2022-11-09T10:27:25;14.90;99.90
13659;DHT22;6902;52.158;11.574;2022-11-09T10:29:53;15.10;99.90
13659;DHT22;6902;52.158;11.574;2022-11-09T10:32:22;15.30;99.90
13659;DHT22;6902;52.158;11.574;2022-11-09T10:34:53;15.40;99.90
13659;DHT22;6902;52.158;11.574;2022-11-09T10:37:25;15.60;99.90
13659;DHT22;6902;52.158;11.574;2022-11-09T10:39:57;15.90;99.90
13659;DHT22;6902;52.158;11.574;2022-11-09T10:42:49;15.90;99.90
13659;DHT22;6902;52.158;11.574;2022-11-09T10:45:36;16.10;99.90
13659;DHT22;6902;52.158;11.574;2022-11-09T10:48:30;16.00;99.90
13659;DHT22;6902;52.158;11.574;2022-11-09T10:51:37;16.10;99.90
13659;DHT22;6902;52.158;11.574;2022-11-09T10:54:25;16.20;99.90
13659;DHT22;6902;52.158;11.574;2022-11-09T21:24:08;12.20;99.90
13659;DHT22;6902;52.158;11.574;2022-11-09T21:27:11;11.90;99.90
13659;DHT22;6902;52.158;11.574;2022-11-09T21:30:15;11.90;99.90
13659;DHT22;6902;52.158;11.574;2022-11-09T21:33:02;11.90;99.90
13659;DHT22;6902;52.158;11.574;2022-11-09T21:35:49;11.90;99.90
13659;DHT22;6902;52.158;11.574;2022-11-09T21:38:36;12.00;99.90
13659;DHT22;6902;52.158;11.574;2022-11-09T21:41:22;12.00;99.90
13659;DHT22;6902;52.158;11.574;2022-11-09T21:44:26;11.90;99.90
13659;DHT22;6902;52.158;11.574;2022-11-09T21:47:12;12.00;99.90
13659;DHT22;6902;52.158;11.574;2022-11-09T21:49:58;12.00;99.90
13659;DHT22;6902;52.158;11.574;2022-11-09T21:52:45;11.90;99.90
13659;DHT22;6902;52.158;11.574;2022-11-09T21:55:31;12.00;99.90
13659;DHT22;6902;52.158;11.574;2022-11-09T21:58:17;12.00;99.90
13659;DHT22;6902;52.158;11.574;2022-11-09T22:01:05;12.00;99.90
13659;DHT22;6902;52.158;11.574;2022-11-09T23:31:11;12.00;99.90
13659;DHT22;6902;52.158;11.574;2022-11-09T23:33:59;11.70;99.90
13659;DHT22;6902;52.158;11.574;2022-11-09T23:36:45;11.70;99.90
